In Rescue
 
Open Full Screen Window  High Contrast Mode
Wind Gusting 21 knots
15
May 20, 2019 3:51 PM EDT
Weather Information
Wind Direction
  260 °
Wind Speed
  15 kt (17 mph)
Wind Gust
  21 kt (24 mph)
Altimeter
29.95 in
Visibility
10 SM
Temperature
16° C
61° F
Dewpoint
08° C
46° F
Humidity
59%
1hr Rain Fall
00.00 in.
24hr Rain Fall
00.02 in.
Sky Condition
Overcast @ 4,800 ft
Broken @ 4,100 ft
Broken @ 3,500 ft
VFR

METAR KPOV 201951Z AUTO 26015G21KT 10SM BKN035 BKN041 OVC048 16/08 A2995 RMK AO2 T01620082 PWINO

FAA Disclaimer: The data displayed is for advisory purposes only and is not to be used for flight planning or operations.